Time;durP1;ratioP1;P1;durP2;ratioP2;P2;SDS_P1;SDS_P2;PMS_P1;PMS_P2;Temp;Humidity;BMP_temperature;BMP_pressure;BME280_temperature;BME280_humidity;BME280_pressure;Samples;Min_cycle;Max_cycle;Signal;HPM_P1;HPM_P2
2023/01/20 00:00:31;;;;;;;3.70;3.05;;;;;;;;;;6202326;23;20111;-79
2023/01/20 00:02:57;;;;;;;6.22;3.35;;;;;;;;;;6177356;23;20353;-79
2023/01/20 00:05:23;;;;;;;3.58;2.78;;;;;;;;;;6201547;23;20016;-79
2023/01/20 00:07:49;;;;;;;8.05;2.97;;;;;;;;;;6200510;23;20048;-79
2023/01/20 00:10:15;;;;;;;3.42;2.70;;;;;;;;;;6177293;23;20027;-78
2023/01/20 00:12:42;;;;;;;3.75;2.80;;;;;;;;;;6199487;23;20016;-79
2023/01/20 00:15:09;;;;;;;4.47;2.90;;;;;;;;;;6201674;23;20021;-79
2023/01/20 00:17:35;;;;;;;9.82;3.22;;;;;;;;;;6178289;23;20017;-79
2023/01/20 00:20:01;;;;;;;3.83;2.60;;;;;;;;;;6200940;23;20016;-79
2023/01/20 00:22:27;;;;;;;4.18;2.63;;;;;;;;;;6202622;23;20493;-79
2023/01/20 00:24:53;;;;;;;4.70;3.17;;;;;;;;;;6179132;23;20028;-79
2023/01/20 00:27:19;;;;;;;7.25;2.70;;;;;;;;;;6202833;23;20624;-79
2023/01/20 00:29:45;;;;;;;6.97;3.20;;;;;;;;;;6178694;23;20020;-79
2023/01/20 00:32:12;;;;;;;6.25;3.22;;;;;;;;;;6202601;23;20027;-79
2023/01/20 00:34:38;;;;;;;3.10;2.80;;;;;;;;;;6177168;23;20494;-79
2023/01/20 00:37:04;;;;;;;3.45;2.63;;;;;;;;;;6154976;23;20020;-79
2023/01/20 00:39:30;;;;;;;5.32;3.00;;;;;;;;;;6202757;23;20016;-79
2023/01/20 00:41:56;;;;;;;4.75;3.00;;;;;;;;;;6177302;23;20601;-79
2023/01/20 00:44:22;;;;;;;3.90;3.00;;;;;;;;;;6203464;23;20024;-78
2023/01/20 00:46:48;;;;;;;5.45;3.10;;;;;;;;;;6177497;23;20024;-79
2023/01/20 00:49:14;;;;;;;4.03;3.00;;;;;;;;;;6178248;23;20016;-79
2023/01/20 00:51:40;;;;;;;4.72;3.25;;;;;;;;;;6202505;23;20105;-79
2023/01/20 00:54:06;;;;;;;7.30;3.33;;;;;;;;;;6202745;23;20020;-78
2023/01/20 00:56:32;;;;;;;5.28;2.60;;;;;;;;;;6176910;23;20020;-81
2023/01/20 00:58:58;;;;;;;6.05;2.78;;;;;;;;;;6204742;23;20427;-81
2023/01/20 01:01:25;;;;;;;7.35;3.08;;;;;;;;;;6178622;23;20027;-81
2023/01/20 01:03:53;;;;;;;4.45;2.60;;;;;;;;;;6176754;23;20044;-82
2023/01/20 01:06:19;;;;;;;4.95;2.92;;;;;;;;;;6178232;23;20020;-81
2023/01/20 01:08:46;;;;;;;4.22;3.08;;;;;;;;;;6203391;23;20412;-81
2023/01/20 01:11:12;;;;;;;6.30;3.00;;;;;;;;;;6201195;23;20017;-81
2023/01/20 01:13:38;;;;;;;5.47;3.45;;;;;;;;;;6202098;23;20017;-81
2023/01/20 01:16:05;;;;;;;6.90;3.70;;;;;;;;;;6203731;23;20181;-82
2023/01/20 01:18:31;;;;;;;4.53;3.50;;;;;;;;;;6203808;23;20342;-81
2023/01/20 01:20:57;;;;;;;4.75;3.20;;;;;;;;;;6201632;23;20347;-81
2023/01/20 01:23:23;;;;;;;6.15;3.38;;;;;;;;;;6203415;23;20017;-81
2023/01/20 01:25:49;;;;;;;5.70;3.40;;;;;;;;;;6204886;23;20021;-79
2023/01/20 01:28:15;;;;;;;6.53;3.72;;;;;;;;;;6204138;23;20091;-81
2023/01/20 01:30:41;;;;;;;8.27;4.30;;;;;;;;;;6180255;23;20016;-81
2023/01/20 01:33:07;;;;;;;4.03;2.88;;;;;;;;;;6204776;23;20016;-81
2023/01/20 01:35:33;;;;;;;7.57;4.47;;;;;;;;;;6156198;23;20088;-81
2023/01/20 01:37:59;;;;;;;7.97;4.38;;;;;;;;;;6180867;23;20013;-81
2023/01/20 01:40:25;;;;;;;9.65;4.85;;;;;;;;;;6179375;23;20067;-81
2023/01/20 01:42:52;;;;;;;7.07;4.22;;;;;;;;;;6206272;23;20025;-81
2023/01/20 01:45:20;;;;;;;6.68;4.13;;;;;;;;;;6181227;23;20020;-81
2023/01/20 01:48:07;;;;;;;11.43;5.18;;;;;;;;;;6182891;23;20020;-81
2023/01/20 01:50:42;;;;;;;6.68;5.03;;;;;;;;;;6183289;23;20016;-81
2023/01/20 01:53:09;;;;;;;9.40;4.88;;;;;;;;;;6182548;23;20016;-81
2023/01/20 01:55:37;;;;;;;11.10;5.40;;;;;;;;;;6206622;23;20110;-81
2023/01/20 01:58:05;;;;;;;10.95;6.30;;;;;;;;;;6182251;23;20016;-81
2023/01/20 02:00:31;;;;;;;8.48;5.88;;;;;;;;;;6207640;23;20016;-81
2023/01/20 02:02:57;;;;;;;11.73;7.45;;;;;;;;;;6155268;23;20086;-81
2023/01/20 02:05:25;;;;;;;7.90;5.32;;;;;;;;;;6206036;23;20454;-81
2023/01/20 02:07:51;;;;;;;16.13;4.63;;;;;;;;;;6180080;23;20068;-81
2023/01/20 02:10:18;;;;;;;15.40;8.85;;;;;;;;;;6178968;23;20024;-81
2023/01/20 02:12:46;;;;;;;20.88;9.63;;;;;;;;;;6204914;23;20020;-82
2023/01/20 02:15:12;;;;;;;30.10;9.45;;;;;;;;;;6204568;23;20039;-81
2023/01/20 02:17:49;;;;;;;37.65;12.07;;;;;;;;;;6180130;23;20032;-81
2023/01/20 02:20:21;;;;;;;40.53;10.63;;;;;;;;;;6205292;23;20136;-81
2023/01/20 02:23:06;;;;;;;62.50;10.63;;;;;;;;;;6204826;23;20020;-81
2023/01/20 02:25:52;;;;;;;57.35;11.07;;;;;;;;;;6205826;23;20028;-81
2023/01/20 02:28:57;;;;;;;73.90;11.60;;;;;;;;;;6188860;23;20059;-81
2023/01/20 02:31:26;;;;;;;113.43;13.75;;;;;;;;;;6116527;23;20116;-81
2023/01/20 02:33:57;;;;;;;69.78;13.70;;;;;;;;;;6142452;23;20084;-81
2023/01/20 02:36:42;;;;;;;30.27;10.32;;;;;;;;;;6176497;23;20048;-81
2023/01/20 02:39:24;;;;;;;61.42;11.23;;;;;;;;;;6204411;23;20012;-81
2023/01/20 02:41:58;;;;;;;48.88;15.15;;;;;;;;;;6203420;23;20016;-81
2023/01/20 02:44:39;;;;;;;27.30;12.55;;;;;;;;;;6204942;23;20048;-81
2023/01/20 02:47:44;;;;;;;23.60;10.55;;;;;;;;;;6178296;23;20017;-81
2023/01/20 02:50:20;;;;;;;22.60;13.15;;;;;;;;;;6116867;23;20491;-81
2023/01/20 02:52:50;;;;;;;25.58;11.60;;;;;;;;;;6117455;23;20017;-81
2023/01/20 02:55:25;;;;;;;27.00;9.90;;;;;;;;;;6163184;23;20016;-81
2023/01/20 02:57:54;;;;;;;34.97;13.32;;;;;;;;;;6204019;23;20027;-80
2023/01/20 03:00:22;;;;;;;59.55;14.50;;;;;;;;;;6179243;23;20102;-80
2023/01/20 03:02:50;;;;;;;30.10;12.60;;;;;;;;;;6203069;23;20024;-81
2023/01/20 03:05:25;;;;;;;24.77;11.30;;;;;;;;;;6176476;23;20304;-81
2023/01/20 03:07:52;;;;;;;24.50;12.82;;;;;;;;;;6177130;23;20059;-81
2023/01/20 03:10:20;;;;;;;18.27;9.15;;;;;;;;;;6202150;23;20068;-82
2023/01/20 03:12:49;;;;;;;38.83;11.27;;;;;;;;;;6207128;23;20076;-81
2023/01/20 03:15:16;;;;;;;40.88;12.35;;;;;;;;;;6204016;23;20483;-81
2023/01/20 03:17:42;;;;;;;37.92;12.48;;;;;;;;;;6177152;23;20369;-80
2023/01/20 03:20:09;;;;;;;28.83;11.68;;;;;;;;;;6203665;23;20476;-80
2023/01/20 03:22:35;;;;;;;32.45;13.63;;;;;;;;;;6178077;23;20020;-81
2023/01/20 03:25:02;;;;;;;22.75;12.52;;;;;;;;;;6202086;23;20027;-81
2023/01/20 03:27:28;;;;;;;36.47;14.35;;;;;;;;;;6175827;23;20044;-81
2023/01/20 03:29:54;;;;;;;17.05;8.98;;;;;;;;;;6176973;23;20020;-81
2023/01/20 03:32:25;;;;;;;32.40;14.45;;;;;;;;;;6177476;23;20078;-81
2023/01/20 03:34:53;;;;;;;35.42;15.90;;;;;;;;;;6199902;23;20017;-81
2023/01/20 03:37:19;;;;;;;32.33;15.65;;;;;;;;;;6199435;23;20354;-75
2023/01/20 03:39:45;;;;;;;28.65;13.80;;;;;;;;;;6183450;23;20024;-75
2023/01/20 03:42:18;;;;;;;36.00;16.02;;;;;;;;;;6203176;23;20012;-74
2023/01/20 03:44:56;;;;;;;26.65;14.57;;;;;;;;;;6227583;23;20016;-74
2023/01/20 03:47:32;;;;;;;33.92;14.20;;;;;;;;;;6172252;23;20055;-75
2023/01/20 03:49:58;;;;;;;27.48;12.68;;;;;;;;;;6197957;23;20016;-75
2023/01/20 03:52:40;;;;;;;33.65;16.50;;;;;;;;;;6173680;23;20060;-76
2023/01/20 03:55:11;;;;;;;35.95;17.27;;;;;;;;;;6199599;23;20075;-75
2023/01/20 03:57:41;;;;;;;33.30;16.48;;;;;;;;;;6202895;23;20035;-76
2023/01/20 04:00:08;;;;;;;29.08;15.32;;;;;;;;;;6184909;23;20023;-75
2023/01/20 04:02:34;;;;;;;32.85;15.70;;;;;;;;;;6206194;23;20017;-75
2023/01/20 04:05:01;;;;;;;34.47;17.27;;;;;;;;;;6199921;23;20024;-73
2023/01/20 04:07:27;;;;;;;31.80;14.40;;;;;;;;;;6173111;23;20062;-74
2023/01/20 04:09:58;;;;;;;43.08;19.05;;;;;;;;;;6197499;23;20472;-75
2023/01/20 04:12:30;;;;;;;37.03;18.35;;;;;;;;;;6174132;23;20410;-75
2023/01/20 04:14:56;;;;;;;34.95;19.13;;;;;;;;;;6198417;23;20450;-75
2023/01/20 04:17:26;;;;;;;27.58;15.90;;;;;;;;;;6198685;23;20013;-75
2023/01/20 04:19:54;;;;;;;43.67;22.15;;;;;;;;;;6170856;23;20020;-75
2023/01/20 04:22:26;;;;;;;33.35;16.35;;;;;;;;;;6170273;23;20023;-76
2023/01/20 04:24:54;;;;;;;34.03;17.08;;;;;;;;;;6197323;23;20386;-76
2023/01/20 04:27:20;;;;;;;33.00;17.75;;;;;;;;;;6202077;23;20020;-75
2023/01/20 04:29:46;;;;;;;26.88;16.70;;;;;;;;;;6180530;23;20017;-75
2023/01/20 04:32:12;;;;;;;27.75;15.98;;;;;;;;;;6184622;23;20021;-75
2023/01/20 04:34:39;;;;;;;35.33;20.38;;;;;;;;;;6172804;23;20035;-75
2023/01/20 04:37:05;;;;;;;42.55;21.33;;;;;;;;;;6171658;23;20017;-76
2023/01/20 04:39:31;;;;;;;39.38;21.17;;;;;;;;;;6171572;23;20012;-76
2023/01/20 04:41:57;;;;;;;36.47;20.60;;;;;;;;;;6171384;23;20112;-76
2023/01/20 04:44:23;;;;;;;31.83;17.08;;;;;;;;;;6196918;23;20016;-76
2023/01/20 04:46:49;;;;;;;35.33;17.48;;;;;;;;;;6198480;23;20492;-76
2023/01/20 04:49:15;;;;;;;32.28;16.58;;;;;;;;;;6195818;23;20473;-75
2023/01/20 04:51:41;;;;;;;41.97;20.85;;;;;;;;;;6169118;23;20115;-75
2023/01/20 04:54:07;;;;;;;31.65;17.45;;;;;;;;;;6169329;23;20020;-76
2023/01/20 04:56:34;;;;;;;40.50;20.25;;;;;;;;;;6170889;23;20044;-75
2023/01/20 04:59:00;;;;;;;41.33;19.83;;;;;;;;;;6169337;23;20019;-76
2023/01/20 05:01:26;;;;;;;32.20;16.55;;;;;;;;;;6195192;23;20079;-75
2023/01/20 05:03:53;;;;;;;34.05;17.75;;;;;;;;;;6169415;23;20124;-76
2023/01/20 05:06:19;;;;;;;47.22;22.17;;;;;;;;;;6172222;23;20031;-75
2023/01/20 05:08:45;;;;;;;30.63;15.88;;;;;;;;;;6200910;23;20013;-75
2023/01/20 05:11:11;;;;;;;36.75;17.95;;;;;;;;;;6174722;23;20052;-75
2023/01/20 05:13:39;;;;;;;37.38;19.25;;;;;;;;;;6199118;23;20763;-75
2023/01/20 05:16:06;;;;;;;36.00;17.98;;;;;;;;;;6174875;23;20013;-75
2023/01/20 05:18:33;;;;;;;48.08;24.55;;;;;;;;;;6177182;23;20021;-75
2023/01/20 05:20:59;;;;;;;38.38;19.15;;;;;;;;;;6203540;23;20012;-75
2023/01/20 05:23:25;;;;;;;41.40;21.92;;;;;;;;;;6187429;23;20013;-74
2023/01/20 05:25:51;;;;;;;36.33;17.60;;;;;;;;;;6198972;23;20250;-74
2023/01/20 05:28:18;;;;;;;35.60;19.38;;;;;;;;;;6228317;23;20008;-75
2023/01/20 05:30:44;;;;;;;29.35;13.57;;;;;;;;;;6185551;23;20090;-75
2023/01/20 05:33:10;;;;;;;44.92;22.60;;;;;;;;;;6200284;23;20052;-75
2023/01/20 05:35:40;;;;;;;31.63;17.13;;;;;;;;;;6198130;23;20018;-74
2023/01/20 05:38:06;;;;;;;38.28;18.33;;;;;;;;;;6198298;23;20016;-74
2023/01/20 05:40:32;;;;;;;43.92;20.95;;;;;;;;;;6197142;23;20619;-74
2023/01/20 05:42:58;;;;;;;43.38;19.83;;;;;;;;;;6171832;23;20016;-75
2023/01/20 05:45:24;;;;;;;56.90;21.42;;;;;;;;;;6146989;23;20021;-74
2023/01/20 05:47:57;;;;;;;44.10;17.92;;;;;;;;;;6197095;23;20349;-74
2023/01/20 05:50:24;;;;;;;42.50;18.27;;;;;;;;;;6173726;23;20655;-75
2023/01/20 05:52:50;;;;;;;43.85;22.42;;;;;;;;;;6198666;23;20095;-75
2023/01/20 05:55:16;;;;;;;41.75;19.35;;;;;;;;;;6173170;23;20347;-74
2023/01/20 05:57:42;;;;;;;29.85;13.10;;;;;;;;;;6198275;23;20464;-74
2023/01/20 06:00:09;;;;;;;47.60;19.00;;;;;;;;;;6170201;23;20021;-75
2023/01/20 06:02:35;;;;;;;44.67;21.80;;;;;;;;;;6147369;23;20024;-75
2023/01/20 06:05:01;;;;;;;33.15;15.02;;;;;;;;;;6196804;23;20020;-76
2023/01/20 06:07:29;;;;;;;35.58;17.02;;;;;;;;;;6200538;23;20023;-74
2023/01/20 06:09:55;;;;;;;43.70;19.42;;;;;;;;;;6200957;23;20069;-74
2023/01/20 06:12:21;;;;;;;44.33;20.35;;;;;;;;;;6199006;23;20094;-73
2023/01/20 06:14:47;;;;;;;37.33;16.83;;;;;;;;;;6197572;23;20087;-74
2023/01/20 06:17:14;;;;;;;45.00;20.25;;;;;;;;;;6198915;23;20023;-75
2023/01/20 06:19:40;;;;;;;41.20;19.40;;;;;;;;;;6200163;23;20017;-75
2023/01/20 06:22:07;;;;;;;39.53;18.13;;;;;;;;;;6202250;23;20704;-74
2023/01/20 06:24:33;;;;;;;38.22;17.40;;;;;;;;;;6207939;23;20082;-74
2023/01/20 06:26:59;;;;;;;41.05;20.55;;;;;;;;;;6208819;23;20020;-75
2023/01/20 06:29:25;;;;;;;32.42;15.05;;;;;;;;;;6215682;23;20032;-75
2023/01/20 06:31:51;;;;;;;32.17;15.13;;;;;;;;;;6196931;23;20009;-74
2023/01/20 06:34:17;;;;;;;41.55;19.98;;;;;;;;;;6198152;23;20087;-74
2023/01/20 06:36:43;;;;;;;35.47;17.25;;;;;;;;;;6201297;23;20012;-75
2023/01/20 06:39:10;;;;;;;41.05;19.15;;;;;;;;;;6175815;23;20055;-75
2023/01/20 06:41:36;;;;;;;40.50;19.27;;;;;;;;;;6173373;23;20020;-75
2023/01/20 06:44:02;;;;;;;43.03;18.45;;;;;;;;;;6174005;23;20020;-74
2023/01/20 06:46:28;;;;;;;35.40;16.50;;;;;;;;;;6198580;23;20017;-75
2023/01/20 06:48:59;;;;;;;29.70;14.02;;;;;;;;;;6174119;23;20439;-76
2023/01/20 06:51:26;;;;;;;39.70;17.85;;;;;;;;;;6174505;23;20119;-75
2023/01/20 06:53:52;;;;;;;41.83;19.98;;;;;;;;;;6199450;23;20469;-75
2023/01/20 06:56:19;;;;;;;40.45;17.75;;;;;;;;;;6203981;23;20052;-76
2023/01/20 06:58:45;;;;;;;38.45;18.70;;;;;;;;;;6214245;23;20019;-75
2023/01/20 07:01:16;;;;;;;37.63;17.58;;;;;;;;;;6189145;23;20013;-75
2023/01/20 07:03:42;;;;;;;43.95;18.98;;;;;;;;;;6227853;23;20017;-75
2023/01/20 07:06:28;;;;;;;35.65;16.38;;;;;;;;;;6231177;23;20025;-75
2023/01/20 07:08:54;;;;;;;40.10;18.15;;;;;;;;;;6208891;23;20029;-75
2023/01/20 07:11:21;;;;;;;40.97;18.98;;;;;;;;;;6175177;23;20067;-75
2023/01/20 07:13:47;;;;;;;35.70;17.30;;;;;;;;;;6201280;23;20012;-75
2023/01/20 07:16:13;;;;;;;39.75;19.27;;;;;;;;;;6175664;23;20075;-76
2023/01/20 07:18:40;;;;;;;37.10;18.02;;;;;;;;;;6175389;23;20021;-75
2023/01/20 07:21:06;;;;;;;33.92;15.85;;;;;;;;;;6199228;23;20095;-75
2023/01/20 07:23:32;;;;;;;38.42;18.60;;;;;;;;;;6199634;23;20027;-75
2023/01/20 07:25:58;;;;;;;32.85;15.30;;;;;;;;;;6198977;23;20020;-77
2023/01/20 07:28:25;;;;;;;28.20;14.50;;;;;;;;;;6199408;23;20020;-76
2023/01/20 07:30:51;;;;;;;34.00;16.20;;;;;;;;;;6174299;23;20158;-76
2023/01/20 07:33:17;;;;;;;35.45;17.52;;;;;;;;;;6199999;23;20031;-76
2023/01/20 07:35:43;;;;;;;33.03;15.60;;;;;;;;;;6198379;23;20021;-75
2023/01/20 07:38:09;;;;;;;26.35;14.25;;;;;;;;;;6174929;23;20448;-75
2023/01/20 07:40:35;;;;;;;29.77;14.73;;;;;;;;;;6174726;23;20130;-76
2023/01/20 07:43:04;;;;;;;28.80;14.55;;;;;;;;;;6175071;23;20615;-76
2023/01/20 07:45:30;;;;;;;32.47;17.38;;;;;;;;;;6176292;23;20035;-75
2023/01/20 07:47:57;;;;;;;32.28;16.50;;;;;;;;;;6202730;23;20020;-75
2023/01/20 07:50:24;;;;;;;38.25;17.27;;;;;;;;;;6201036;23;20493;-75
2023/01/20 07:52:50;;;;;;;27.35;14.52;;;;;;;;;;6201428;23;20095;-75
2023/01/20 07:55:16;;;;;;;32.83;15.27;;;;;;;;;;6176520;23;20023;-75
2023/01/20 07:57:42;;;;;;;31.80;15.82;;;;;;;;;;6199863;23;20362;-75
2023/01/20 08:00:08;;;;;;;28.95;16.50;;;;;;;;;;6200529;23;20020;-75
2023/01/20 08:02:38;;;;;;;34.50;17.08;;;;;;;;;;6199973;23;20620;-76
2023/01/20 08:05:05;;;;;;;24.67;14.60;;;;;;;;;;6175943;23;20664;-75
2023/01/20 08:07:31;;;;;;;35.42;19.00;;;;;;;;;;6199672;23;20134;-76
2023/01/20 08:09:57;;;;;;;38.58;17.10;;;;;;;;;;6199109;23;20024;-76
2023/01/20 08:12:24;;;;;;;37.05;19.38;;;;;;;;;;6198882;23;20048;-76
2023/01/20 08:14:50;;;;;;;36.03;18.60;;;;;;;;;;6173175;23;20048;-76
2023/01/20 08:17:16;;;;;;;35.10;17.30;;;;;;;;;;6200743;23;20017;-76
2023/01/20 08:19:42;;;;;;;38.63;20.63;;;;;;;;;;6176544;23;20064;-76
2023/01/20 08:22:08;;;;;;;46.55;23.17;;;;;;;;;;6158457;23;20059;-76
2023/01/20 08:24:34;;;;;;;41.60;20.65;;;;;;;;;;6184166;23;20335;-74
2023/01/20 08:27:00;;;;;;;39.78;20.80;;;;;;;;;;6210607;23;20068;-75
2023/01/20 08:29:26;;;;;;;40.28;19.90;;;;;;;;;;6222862;23;20016;-74
2023/01/20 08:31:54;;;;;;;32.10;17.58;;;;;;;;;;6219806;23;20035;-74
2023/01/20 08:34:22;;;;;;;41.65;19.52;;;;;;;;;;6213939;23;20072;-74
2023/01/20 08:36:52;;;;;;;34.20;17.38;;;;;;;;;;6206110;23;20044;-74
2023/01/20 08:39:19;;;;;;;35.65;19.55;;;;;;;;;;6204775;23;20032;-75
2023/01/20 08:41:46;;;;;;;30.90;15.02;;;;;;;;;;6189640;23;20009;-73
2023/01/20 08:44:15;;;;;;;38.75;20.55;;;;;;;;;;6214433;23;20016;-73
2023/01/20 08:46:41;;;;;;;34.70;18.48;;;;;;;;;;6226003;23;20012;-75
2023/01/20 08:49:09;;;;;;;37.33;19.10;;;;;;;;;;6228229;23;20008;-75
2023/01/20 08:51:35;;;;;;;35.00;18.65;;;;;;;;;;6206553;23;20424;-75
2023/01/20 08:54:01;;;;;;;44.25;20.90;;;;;;;;;;6201370;23;20027;-74
2023/01/20 08:56:28;;;;;;;37.67;19.85;;;;;;;;;;6172573;23;20099;-74
2023/01/20 08:58:55;;;;;;;36.65;18.52;;;;;;;;;;6198294;23;20016;-75
2023/01/20 09:01:23;;;;;;;42.97;20.55;;;;;;;;;;6173810;23;20426;-75
2023/01/20 09:03:49;;;;;;;39.78;20.60;;;;;;;;;;6174287;23;20029;-75
2023/01/20 09:06:15;;;;;;;45.42;21.00;;;;;;;;;;6174843;23;20659;-74
2023/01/20 09:08:41;;;;;;;50.58;23.17;;;;;;;;;;6200360;23;20026;-74
2023/01/20 09:11:09;;;;;;;48.38;22.42;;;;;;;;;;6201369;23;20725;-74
2023/01/20 09:13:35;;;;;;;40.80;21.65;;;;;;;;;;6203179;23;20342;-74
2023/01/20 09:16:03;;;;;;;41.42;22.42;;;;;;;;;;6203732;23;20525;-75
2023/01/20 09:18:30;;;;;;;39.30;20.13;;;;;;;;;;6210848;23;20090;-74
2023/01/20 09:21:00;;;;;;;42.60;21.52;;;;;;;;;;6206960;23;20044;-75
2023/01/20 09:23:26;;;;;;;40.40;19.15;;;;;;;;;;6206016;23;20739;-75
2023/01/20 09:25:53;;;;;;;45.60;23.25;;;;;;;;;;6204265;23;20835;-75
2023/01/20 09:28:19;;;;;;;46.75;24.40;;;;;;;;;;6156097;23;20027;-75
2023/01/20 09:30:45;;;;;;;41.67;22.95;;;;;;;;;;6230757;23;20016;-75
2023/01/20 09:33:12;;;;;;;43.63;22.40;;;;;;;;;;6176786;23;20398;-76
2023/01/20 09:35:38;;;;;;;42.10;22.38;;;;;;;;;;6176135;23;20008;-75
2023/01/20 09:44:13;;;;;;;48.95;22.98;;;;;;;;;;6201846;23;20020;-75
2023/01/20 09:47:18;;;;;;;47.70;24.98;;;;;;;;;;6162160;23;20055;-75
2023/01/20 09:55:19;;;;;;;50.03;26.20;;;;;;;;;;6203586;23;20024;-75
2023/01/20 09:57:48;;;;;;;49.03;21.70;;;;;;;;;;6180681;23;20024;-74
2023/01/20 10:00:16;;;;;;;44.38;23.92;;;;;;;;;;6180798;23;20020;-74
2023/01/20 10:02:44;;;;;;;45.38;24.85;;;;;;;;;;6181230;23;20024;-75
2023/01/20 10:05:12;;;;;;;47.10;26.15;;;;;;;;;;6232372;23;20035;-75
2023/01/20 10:07:55;;;;;;;45.03;22.73;;;;;;;;;;6208194;23;20041;-75
2023/01/20 10:10:24;;;;;;;40.67;21.45;;;;;;;;;;6207501;23;20086;-75
2023/01/20 10:13:01;;;;;;;43.38;24.65;;;;;;;;;;6236391;23;20445;-74
2023/01/20 10:15:32;;;;;;;50.47;25.85;;;;;;;;;;6211424;23;20016;-75
2023/01/20 10:18:08;;;;;;;43.33;24.35;;;;;;;;;;6218542;23;20457;-73
2023/01/20 10:20:34;;;;;;;42.33;22.63;;;;;;;;;;6194993;23;20024;-73
2023/01/20 10:23:04;;;;;;;45.60;23.98;;;;;;;;;;6255282;23;20004;-73
2023/01/20 10:25:33;;;;;;;41.15;20.20;;;;;;;;;;6237838;23;20055;-73
2023/01/20 10:28:11;;;;;;;39.10;23.08;;;;;;;;;;6232505;23;20039;-73
2023/01/20 10:30:37;;;;;;;49.92;27.02;;;;;;;;;;6254993;23;20026;-74
2023/01/20 10:33:09;;;;;;;52.65;29.13;;;;;;;;;;6225524;23;20023;-74
2023/01/20 10:35:41;;;;;;;41.95;23.02;;;;;;;;;;6185704;23;20019;-75
2023/01/20 10:38:08;;;;;;;42.47;22.85;;;;;;;;;;6204862;23;20094;-76
2023/01/20 10:40:52;;;;;;;40.70;21.23;;;;;;;;;;6203006;23;20015;-74
2023/01/20 10:43:18;;;;;;;43.40;25.15;;;;;;;;;;6204640;23;20020;-75
2023/01/20 10:46:00;;;;;;;40.05;21.67;;;;;;;;;;6203796;23;20016;-75
2023/01/20 10:48:29;;;;;;;42.03;22.77;;;;;;;;;;6178807;23;20720;-75
2023/01/20 10:51:02;;;;;;;45.17;22.83;;;;;;;;;;6204808;23;20030;-74
2023/01/20 10:53:48;;;;;;;43.95;24.35;;;;;;;;;;6202268;23;20188;-76
2023/01/20 10:56:21;;;;;;;46.67;23.92;;;;;;;;;;6203458;23;20375;-74
2023/01/20 10:58:47;;;;;;;47.00;24.77;;;;;;;;;;6202481;23;20016;-75
2023/01/20 11:01:14;;;;;;;49.78;24.60;;;;;;;;;;6230289;23;20016;-75
2023/01/20 11:03:41;;;;;;;50.90;28.00;;;;;;;;;;6177232;23;20472;-75
2023/01/20 11:06:12;;;;;;;46.55;24.92;;;;;;;;;;6204851;23;20514;-74
2023/01/20 11:08:38;;;;;;;47.90;25.58;;;;;;;;;;6181064;23;20023;-76
2023/01/20 11:11:10;;;;;;;40.53;23.00;;;;;;;;;;6181095;23;20016;-75
2023/01/20 11:13:36;;;;;;;46.30;23.55;;;;;;;;;;6205263;23;20098;-75
2023/01/20 11:16:04;;;;;;;41.97;22.85;;;;;;;;;;6179558;23;20105;-75
2023/01/20 11:18:31;;;;;;;41.83;23.38;;;;;;;;;;6179665;23;20016;-76
2023/01/20 11:20:59;;;;;;;41.30;22.13;;;;;;;;;;6179781;23;20800;-76
2023/01/20 11:23:29;;;;;;;41.70;23.60;;;;;;;;;;6179404;23;20039;-75
2023/01/20 11:26:10;;;;;;;42.42;22.05;;;;;;;;;;6204312;23;20404;-76
2023/01/20 11:28:43;;;;;;;39.92;21.80;;;;;;;;;;6180208;23;20533;-75
2023/01/20 11:31:10;;;;;;;45.13;23.48;;;;;;;;;;6204675;23;20116;-75
2023/01/20 11:33:36;;;;;;;47.00;24.65;;;;;;;;;;6205335;23;20016;-75
2023/01/20 11:36:06;;;;;;;40.92;22.73;;;;;;;;;;6207569;23;20020;-75
2023/01/20 11:38:42;;;;;;;46.25;24.83;;;;;;;;;;6206131;23;20044;-76
2023/01/20 11:41:37;;;;;;;50.72;25.35;;;;;;;;;;6206409;23;20016;-75
2023/01/20 11:44:06;;;;;;;47.50;26.17;;;;;;;;;;6162031;23;20016;-75
2023/01/20 11:46:33;;;;;;;49.00;25.98;;;;;;;;;;6207079;23;20481;-75
2023/01/20 11:49:25;;;;;;;64.65;34.00;;;;;;;;;;6231689;23;20031;-75
2023/01/20 11:51:53;;;;;;;55.17;29.75;;;;;;;;;;6227090;23;20020;-76
2023/01/20 11:54:21;;;;;;;52.92;29.05;;;;;;;;;;6183024;23;20052;-77
2023/01/20 11:56:49;;;;;;;45.90;24.80;;;;;;;;;;6210465;23;20012;-75
2023/01/20 11:59:42;;;;;;;44.67;25.88;;;;;;;;;;6218879;23;20008;-76
2023/01/20 12:02:08;;;;;;;42.95;23.42;;;;;;;;;;6215305;23;20047;-75
2023/01/20 12:04:43;;;;;;;43.58;24.55;;;;;;;;;;6256523;22;20020;-76
2023/01/20 12:07:19;;;;;;;43.17;24.10;;;;;;;;;;6235480;23;20063;-76
2023/01/20 12:09:48;;;;;;;49.67;25.30;;;;;;;;;;6216818;23;20048;-75
2023/01/20 12:12:23;;;;;;;46.38;24.42;;;;;;;;;;6180459;23;20399;-75
2023/01/20 12:14:53;;;;;;;46.58;24.77;;;;;;;;;;6205520;23;20016;-75
2023/01/20 12:17:32;;;;;;;53.53;25.98;;;;;;;;;;6232023;23;20016;-76
2023/01/20 12:19:58;;;;;;;47.55;26.30;;;;;;;;;;6180375;23;20341;-76
2023/01/20 12:22:27;;;;;;;41.58;23.92;;;;;;;;;;6208393;23;20020;-75
2023/01/20 12:25:06;;;;;;;43.95;22.85;;;;;;;;;;6209116;23;20442;-76
2023/01/20 12:27:33;;;;;;;41.25;22.27;;;;;;;;;;6208928;23;20020;-75
2023/01/20 12:30:02;;;;;;;45.70;25.13;;;;;;;;;;6219214;23;20024;-75
2023/01/20 12:32:30;;;;;;;43.75;23.98;;;;;;;;;;6221427;23;20016;-75
2023/01/20 12:34:57;;;;;;;45.97;23.52;;;;;;;;;;6190292;23;20831;-76
2023/01/20 12:37:28;;;;;;;45.60;25.98;;;;;;;;;;6180976;23;20027;-76
2023/01/20 12:40:03;;;;;;;47.35;23.48;;;;;;;;;;6204913;23;20417;-76
2023/01/20 12:42:29;;;;;;;45.72;25.02;;;;;;;;;;6205075;23;20055;-76
2023/01/20 12:45:04;;;;;;;39.70;23.27;;;;;;;;;;6181147;23;20050;-76
2023/01/20 12:47:36;;;;;;;44.17;25.13;;;;;;;;;;6204658;23;20055;-75
2023/01/20 12:50:02;;;;;;;44.20;23.85;;;;;;;;;;6204159;23;20078;-75
2023/01/20 12:52:36;;;;;;;47.75;24.92;;;;;;;;;;6203046;23;20024;-76
2023/01/20 12:55:18;;;;;;;42.60;24.20;;;;;;;;;;6205475;23;20014;-75
2023/01/20 12:58:00;;;;;;;45.90;26.60;;;;;;;;;;6204242;23;20012;-75
2023/01/20 13:00:55;;;;;;;47.63;26.55;;;;;;;;;;6204763;23;20020;-75
2023/01/20 13:03:24;;;;;;;43.10;25.17;;;;;;;;;;6124678;23;20063;-75
2023/01/20 13:05:56;;;;;;;41.97;24.65;;;;;;;;;;6206800;23;20020;-74
2023/01/20 13:08:38;;;;;;;40.30;23.08;;;;;;;;;;6203667;23;20124;-75
2023/01/20 13:11:23;;;;;;;42.40;22.67;;;;;;;;;;6231110;23;20643;-75
2023/01/20 13:14:01;;;;;;;40.50;22.95;;;;;;;;;;6204483;23;20070;-75
2023/01/20 13:16:40;;;;;;;44.45;24.50;;;;;;;;;;6180101;23;20012;-75
2023/01/20 13:19:14;;;;;;;40.58;22.10;;;;;;;;;;6206707;23;20035;-76
2023/01/20 13:21:41;;;;;;;45.63;24.67;;;;;;;;;;6205840;23;20020;-76
2023/01/20 13:24:17;;;;;;;43.42;23.63;;;;;;;;;;6181466;23;20094;-76
2023/01/20 13:26:44;;;;;;;40.72;22.48;;;;;;;;;;6206762;23;20020;-76
2023/01/20 13:29:20;;;;;;;38.17;22.42;;;;;;;;;;6180947;23;20016;-76
2023/01/20 13:31:46;;;;;;;39.08;22.02;;;;;;;;;;6206080;23;20020;-76
2023/01/20 13:34:21;;;;;;;45.55;25.00;;;;;;;;;;6206608;23;20105;-75
2023/01/20 13:37:02;;;;;;;63.50;36.63;;;;;;;;;;6231699;23;20015;-76
2023/01/20 13:39:47;;;;;;;58.10;34.72;;;;;;;;;;6232131;23;20119;-76
2023/01/20 13:42:30;;;;;;;45.13;26.65;;;;;;;;;;6209577;23;20043;-76
2023/01/20 13:45:09;;;;;;;39.58;23.58;;;;;;;;;;6208806;23;20044;-76
2023/01/20 13:47:47;;;;;;;39.08;22.38;;;;;;;;;;6225888;23;20027;-74
2023/01/20 13:50:32;;;;;;;39.20;22.48;;;;;;;;;;6223463;22;20024;-75
2023/01/20 13:53:17;;;;;;;40.22;22.55;;;;;;;;;;6210693;22;20189;-75
2023/01/20 13:55:44;;;;;;;37.70;21.98;;;;;;;;;;6215507;23;20054;-75
2023/01/20 13:58:21;;;;;;;43.00;24.20;;;;;;;;;;6182602;23;20016;-76
2023/01/20 14:00:48;;;;;;;36.55;21.45;;;;;;;;;;6182203;23;20093;-76
2023/01/20 14:03:21;;;;;;;39.35;24.60;;;;;;;;;;6208304;23;20066;-76
2023/01/20 14:05:50;;;;;;;39.33;21.75;;;;;;;;;;6207655;23;20027;-76
2023/01/20 14:08:16;;;;;;;47.35;25.80;;;;;;;;;;6181212;23;20082;-76
2023/01/20 14:10:43;;;;;;;39.60;22.48;;;;;;;;;;6179906;23;20020;-76
2023/01/20 14:13:18;;;;;;;38.65;22.58;;;;;;;;;;6207203;23;20020;-75
2023/01/20 14:15:48;;;;;;;44.97;27.73;;;;;;;;;;6180085;23;20020;-76
2023/01/20 14:18:15;;;;;;;43.95;22.25;;;;;;;;;;6180331;23;20541;-76
2023/01/20 14:20:42;;;;;;;37.50;23.23;;;;;;;;;;6181486;23;20016;-76
2023/01/20 14:23:25;;;;;;;40.03;23.90;;;;;;;;;;6181651;23;20032;-76
2023/01/20 14:25:58;;;;;;;42.72;26.23;;;;;;;;;;6180709;23;20019;-76
2023/01/20 14:28:24;;;;;;;43.10;26.80;;;;;;;;;;6231656;23;20016;-77
2023/01/20 14:31:04;;;;;;;38.10;23.63;;;;;;;;;;6195275;23;20059;-75
2023/01/20 14:33:30;;;;;;;47.88;24.98;;;;;;;;;;6222563;23;20333;-75
2023/01/20 14:35:56;;;;;;;51.00;30.48;;;;;;;;;;6212639;23;20020;-75
2023/01/20 14:38:22;;;;;;;48.92;28.88;;;;;;;;;;6180497;23;20016;-75
2023/01/20 14:40:48;;;;;;;56.85;33.10;;;;;;;;;;6180065;23;20016;-76
2023/01/20 14:43:15;;;;;;;55.83;33.17;;;;;;;;;;6204779;23;20536;-75
2023/01/20 14:45:43;;;;;;;54.08;30.48;;;;;;;;;;6215876;23;20039;-76